Terminal Aerodrome Forecast
Issued by NWS

Home | Current Version | Previous Version | Text Only | Print | Product List | Glossary On
Versions: 1 2 3 4 5 6 7 8 9 10 11 12
191
FTUS45 KMSO 290520
TAFSMN
TAF
KSMN 290520Z 2906/3006 VRB05KT P6SM SCT080
     FM290900 VRB03KT P6SM VCFG SCT015 SCT060
     FM291600 35005KT P6SM SCT100
      AMD LTD TO CLD VIS AND WIND=

USA.gov is the U.S. government's official web portal to all federal, state and local government web resources and services.